Pagina principală
METAR-TAF:

METAR-TAF

Aeroporturi :

Pasto, Columbia

Latitudine: 01-25N, longitudine: 077-16W, elevație: 1826 m

Observații meteo curente

Raportul a fost făcut în urmă cu 37 de minute, la 12:00 UTC
Vânt 3 kt de la Sud, variabil între Sud și Vest/Nord-vest
Temperatură 18°C
Umiditate 59%
Presiune 1021 hPa
Vizibilitate de 10 km sau mai mult
Nori puțini la o înălțime de 3000 picior

METAR: SKPS 121200Z 19003KT 170V290 9999 FEW030 18/10 Q1021

Ora: 07:37 (12:37 UTC)


TAF: lipsă

Observații și prognoze meteo pentru peste 4.000 de aeroporturi (rapoarte METAR și TAF).

Stațiile disponibile sunt reprezentate pe hartă prin puncte galbene și roșii.

Țineți indicatorul mouse-ului pe punctul dorit pentru a vedea denumirea stației.

Apoi, faceți clic pentru a vedea observațiile și prognozele meteorologice.

Pentru a schimba harta: Pentru mărire, faceți clic pe butoanele verzi cu cruce neagră; pentru micșorare, pe butonul verde cu o liniuță; pentru hărți învecinate, pe săgețile verzi.


METAR-TAF: